createdAt,value
2018-12-10T00:03:02.910Z,99880.42
2018-12-10T00:05:31.003Z,99878.31
2018-12-10T00:07:59.059Z,99881.66
2018-12-10T00:10:27.103Z,99882.00
2018-12-10T00:12:55.158Z,99883.53
2018-12-10T00:15:23.242Z,99892.80
2018-12-10T00:17:51.294Z,99896.49
2018-12-10T00:20:19.383Z,99896.57
2018-12-10T00:22:47.596Z,99898.66
2018-12-10T00:25:15.656Z,99901.77
2018-12-10T00:27:43.747Z,99913.98
2018-12-10T00:30:11.911Z,99915.20
2018-12-10T00:32:39.957Z,99913.94
2018-12-10T00:35:08.099Z,99910.84
2018-12-10T00:37:36.147Z,99915.36
2018-12-10T00:40:05.219Z,99920.19
2018-12-10T00:42:33.348Z,99927.45
2018-12-10T00:45:01.401Z,99933.67
2018-12-10T00:47:29.455Z,99926.29
2018-12-10T00:49:57.537Z,99940.13
2018-12-10T00:52:25.589Z,99941.78
2018-12-10T00:54:53.648Z,99940.01
2018-12-10T00:57:21.714Z,99947.25
2018-12-10T00:59:50.444Z,99957.41
2018-12-10T01:02:18.624Z,99954.55
2018-12-10T01:04:46.719Z,99956.91
2018-12-10T01:07:14.834Z,99961.72
2018-12-10T01:09:42.981Z,99966.33
2018-12-10T01:12:11.114Z,99967.23
2018-12-10T01:14:39.172Z,99976.59
2018-12-10T01:17:07.252Z,99982.36
2018-12-10T01:19:35.360Z,99984.11
2018-12-10T01:22:03.452Z,99994.40
2018-12-10T01:24:31.608Z,100001.88
2018-12-10T01:26:59.667Z,100004.54
2018-12-10T01:29:27.733Z,100000.85
2018-12-10T01:31:55.789Z,100000.77
2018-12-10T01:34:23.842Z,99999.97
2018-12-10T01:36:52.002Z,100001.84
2018-12-10T01:39:20.083Z,100005.67
2018-12-10T01:41:48.138Z,100008.98
2018-12-10T01:44:16.207Z,100010.53
2018-12-10T01:46:44.303Z,100008.96
2018-12-10T01:49:12.368Z,100007.73
2018-12-10T01:51:40.598Z,100013.84
2018-12-10T01:54:08.671Z,100016.50
2018-12-10T01:56:36.757Z,100018.08
2018-12-10T01:59:04.912Z,100025.20
2018-12-10T02:01:32.974Z,100018.42
2018-12-10T02:04:01.043Z,100016.67
2018-12-10T02:06:29.098Z,100033.63
2018-12-10T02:08:57.190Z,100005.63
2018-12-10T02:11:25.369Z,100019.73
2018-12-10T02:13:53.402Z,100021.30
2018-12-10T02:16:21.484Z,100021.97
2018-12-10T02:18:49.550Z,100028.98
2018-12-10T02:21:17.623Z,100035.01
2018-12-10T02:23:45.671Z,100031.74
2018-12-10T02:26:13.758Z,100042.32
2018-12-10T02:28:47.499Z,100039.13
2018-12-10T02:31:15.623Z,100039.12
2018-12-10T02:33:43.760Z,100041.03
2018-12-10T02:36:12.026Z,100040.43
2018-12-10T02:38:40.068Z,100037.91
2018-12-10T02:41:08.995Z,100040.14
2018-12-10T02:43:37.177Z,100044.10
2018-12-10T02:46:05.348Z,100039.13
2018-12-10T02:48:33.400Z,100044.52
2018-12-10T02:51:01.509Z,100030.77
2018-12-10T02:53:29.678Z,100042.12
2018-12-10T02:55:57.845Z,100052.11
2018-12-10T02:58:25.921Z,100053.20
2018-12-10T03:00:54.071Z,100050.22
2018-12-10T03:03:22.199Z,100053.89
2018-12-10T03:05:50.387Z,100055.47
2018-12-10T03:08:18.559Z,100053.78
2018-12-10T03:10:46.683Z,100061.86
2018-12-10T03:13:14.788Z,100055.08
2018-12-10T03:15:42.988Z,100059.30
2018-12-10T03:18:11.175Z,100075.27
2018-12-10T03:20:39.860Z,100069.75
2018-12-10T03:23:07.929Z,100076.23
2018-12-10T03:25:36.058Z,100073.94
2018-12-10T03:28:04.246Z,100083.63
2018-12-10T03:30:32.392Z,100086.15
2018-12-10T03:33:00.732Z,100095.01
2018-12-10T03:35:28.912Z,100099.93
2018-12-10T03:37:57.087Z,100099.38
2018-12-10T03:40:25.227Z,100099.70
2018-12-10T03:42:53.287Z,100090.55
2018-12-10T03:45:21.399Z,100101.00
2018-12-10T03:47:49.501Z,100112.77
2018-12-10T03:50:17.546Z,100112.88
2018-12-10T03:52:45.644Z,100119.25
2018-12-10T03:55:13.758Z,100122.12
2018-12-10T03:57:41.842Z,100123.50
2018-12-10T04:00:09.904Z,100120.45
2018-12-10T04:02:38.040Z,100120.73
2018-12-10T04:05:06.204Z,100120.58
2018-12-10T04:07:34.351Z,100122.50
2018-12-10T04:10:02.484Z,100123.38
2018-12-10T04:12:30.622Z,100127.08
2018-12-10T04:14:58.677Z,100131.39
2018-12-10T04:17:26.899Z,100125.52
2018-12-10T04:19:55.063Z,100132.22
2018-12-10T04:22:23.150Z,100135.51
2018-12-10T04:24:51.223Z,100142.03
2018-12-10T04:27:19.283Z,100151.04
2018-12-10T04:29:47.335Z,100157.44
2018-12-10T04:32:15.391Z,100153.71
2018-12-10T04:34:43.534Z,100125.27
2018-12-10T04:37:11.680Z,100126.48
2018-12-10T04:39:39.850Z,100127.97
2018-12-10T04:42:08.236Z,100147.56
2018-12-10T04:44:36.987Z,100147.38
2018-12-10T04:47:05.071Z,100142.66
2018-12-10T04:49:33.125Z,100150.75
2018-12-10T04:52:01.235Z,100137.97
2018-12-10T04:54:29.281Z,100151.78
2018-12-10T04:56:57.335Z,100146.04
2018-12-10T04:59:25.390Z,100157.85
2018-12-10T05:01:53.474Z,100156.39
2018-12-10T05:04:21.611Z,100149.77
2018-12-10T05:06:49.690Z,100154.55
2018-12-10T05:09:17.745Z,100156.02
2018-12-10T05:11:45.801Z,100158.07
2018-12-10T05:14:13.967Z,100168.55
2018-12-10T05:16:42.080Z,100171.63
2018-12-10T05:19:10.176Z,100169.26
2018-12-10T05:21:38.256Z,100171.96
2018-12-10T05:24:06.318Z,100181.56
2018-12-10T05:26:34.412Z,100189.80
2018-12-10T05:29:02.503Z,100182.30
2018-12-10T05:31:30.619Z,100189.65
2018-12-10T05:33:58.670Z,100195.77
2018-12-10T05:36:26.782Z,100199.73
2018-12-10T05:38:54.876Z,100196.67
2018-12-10T05:41:23.143Z,100195.20
2018-12-10T05:43:51.198Z,100199.09
2018-12-10T05:46:19.253Z,100203.70
2018-12-10T05:48:47.390Z,100206.36
2018-12-10T05:51:15.532Z,100203.97
2018-12-10T05:53:43.650Z,100201.18
2018-12-10T05:56:11.745Z,100209.39
2018-12-10T05:58:39.833Z,100215.12
2018-12-10T06:01:07.902Z,100223.39
2018-12-10T06:03:35.963Z,100228.09
2018-12-10T06:06:06.774Z,100239.08
2018-12-10T06:08:34.976Z,100238.02
2018-12-10T06:11:03.063Z,100238.49
2018-12-10T06:13:31.123Z,100236.13
2018-12-10T06:15:59.174Z,100232.34
2018-12-10T06:18:27.234Z,100235.70
2018-12-10T06:20:55.288Z,100237.44
2018-12-10T06:23:23.350Z,100241.98
2018-12-10T06:25:53.215Z,100242.77
2018-12-10T06:28:21.287Z,100261.52
2018-12-10T06:30:49.326Z,100258.45
2018-12-10T06:33:17.418Z,100251.59
2018-12-10T06:35:45.512Z,100251.55
2018-12-10T06:38:13.581Z,100258.95
2018-12-10T06:40:41.629Z,100255.61
2018-12-10T06:43:09.830Z,100257.55
2018-12-10T06:45:37.869Z,100258.52
2018-12-10T06:48:06.279Z,100266.19
2018-12-10T06:50:34.462Z,100266.77
2018-12-10T06:53:02.507Z,100264.41
2018-12-10T06:55:30.563Z,100265.53
2018-12-10T06:57:58.696Z,100265.30
2018-12-10T07:00:26.762Z,100275.59
2018-12-10T07:02:54.920Z,100276.66
2018-12-10T07:05:23.006Z,100294.69
2018-12-10T07:07:51.055Z,100294.96
2018-12-10T07:10:19.169Z,100293.98
2018-12-10T07:12:48.367Z,100283.48
2018-12-10T07:15:16.454Z,100290.47
2018-12-10T07:17:44.507Z,100294.64
2018-12-10T07:20:12.771Z,100298.70
2018-12-10T07:22:40.849Z,100302.20
2018-12-10T07:25:08.975Z,100312.51
2018-12-10T07:27:37.049Z,100314.14
2018-12-10T07:30:07.779Z,100313.43
2018-12-10T07:32:35.841Z,100328.71
2018-12-10T07:35:03.958Z,100331.47
2018-12-10T07:37:32.019Z,100327.70
2018-12-10T07:40:00.107Z,100329.79
2018-12-10T07:42:28.166Z,100330.31
2018-12-10T07:44:56.240Z,100323.94
2018-12-10T07:47:24.303Z,100325.07
2018-12-10T07:49:52.367Z,100327.62
2018-12-10T07:52:20.421Z,100332.03
2018-12-10T07:54:48.481Z,100332.50
2018-12-10T07:57:16.585Z,100334.39
2018-12-10T07:59:44.665Z,100334.31
2018-12-10T08:02:12.738Z,100341.14
2018-12-10T08:04:40.810Z,100333.58
2018-12-10T08:07:08.914Z,100334.92
2018-12-10T08:09:37.160Z,100329.96
2018-12-10T08:12:05.342Z,100336.34
2018-12-10T08:14:33.401Z,100337.91
2018-12-10T08:17:01.459Z,100336.73
2018-12-10T08:19:29.602Z,100338.79
2018-12-10T08:21:57.691Z,100340.47
2018-12-10T08:24:25.787Z,100337.12
2018-12-10T08:26:53.901Z,100337.12
2018-12-10T08:29:22.179Z,100342.83
2018-12-10T08:31:50.285Z,100341.68
2018-12-10T08:34:18.488Z,100344.75
2018-12-10T08:36:46.577Z,100351.30
2018-12-10T08:39:14.639Z,100359.25
2018-12-10T08:41:42.730Z,100357.15
2018-12-10T08:44:10.792Z,100366.92
2018-12-10T08:46:38.887Z,100370.26
2018-12-10T08:49:06.969Z,100375.25
2018-12-10T08:51:35.030Z,100385.84
2018-12-10T08:54:03.140Z,100379.89
2018-12-10T08:56:31.223Z,100377.55
2018-12-10T08:58:59.331Z,100384.36
2018-12-10T09:01:27.517Z,100388.09
2018-12-10T09:03:55.760Z,100392.53
2018-12-10T09:06:23.869Z,100387.13
2018-12-10T09:08:51.918Z,100388.88
2018-12-10T09:11:20.004Z,100373.27
2018-12-10T09:13:48.052Z,100383.36
2018-12-10T09:16:16.175Z,100386.22
2018-12-10T09:18:44.379Z,100379.23
2018-12-10T09:21:12.524Z,100378.58
2018-12-10T09:23:40.688Z,100381.59
2018-12-10T09:26:10.764Z,100387.02
2018-12-10T09:28:38.962Z,100391.41
2018-12-10T09:31:09.426Z,100380.84
2018-12-10T09:33:39.659Z,100387.45
2018-12-10T09:36:08.205Z,100391.11
2018-12-10T09:38:36.426Z,100397.55
2018-12-10T09:41:06.295Z,100389.37
2018-12-10T09:43:36.185Z,100396.32
2018-12-10T09:46:08.415Z,100392.03
2018-12-10T09:48:36.711Z,100382.70
2018-12-10T09:51:07.466Z,100388.09
2018-12-10T09:53:36.484Z,100396.00
2018-12-10T09:56:04.921Z,100400.45
2018-12-10T09:58:33.199Z,100404.53
2018-12-10T10:01:01.406Z,100402.66
2018-12-10T10:03:30.501Z,100414.59
2018-12-10T10:05:58.935Z,100416.05
2018-12-10T10:08:27.346Z,100412.94
2018-12-10T10:10:56.429Z,100419.14
2018-12-10T10:13:24.605Z,100416.92
2018-12-10T10:15:52.847Z,100418.66
2018-12-10T10:18:21.074Z,100421.61
2018-12-10T10:20:50.416Z,100419.98
2018-12-10T10:23:18.668Z,100425.54
2018-12-10T10:25:46.809Z,100423.45
2018-12-10T10:28:15.042Z,100420.08
2018-12-10T10:30:44.149Z,100411.73
2018-12-10T10:33:12.850Z,100406.69
2018-12-10T10:35:41.097Z,100414.75
2018-12-10T10:38:09.278Z,100413.40
2018-12-10T10:40:37.718Z,100412.39
2018-12-10T10:43:05.942Z,100404.06
2018-12-10T10:45:34.894Z,100405.55
2018-12-10T10:48:03.347Z,100405.88
2018-12-10T10:50:32.571Z,100400.50
2018-12-10T10:53:00.787Z,100395.41
2018-12-10T10:55:29.961Z,100386.52
2018-12-10T10:57:58.224Z,100394.85
2018-12-10T11:00:31.837Z,100388.61
2018-12-10T11:03:05.407Z,100391.50
2018-12-10T11:05:33.596Z,100386.69
2018-12-10T11:08:01.752Z,100384.50
2018-12-10T11:13:38.516Z,100383.81
2018-12-10T11:16:06.968Z,100381.78
2018-12-10T11:18:35.139Z,100379.46
2018-12-10T11:21:03.365Z,100379.13
2018-12-10T11:23:31.518Z,100373.54
2018-12-10T11:25:59.727Z,100376.55
2018-12-10T11:28:27.968Z,100376.02
2018-12-10T11:30:56.686Z,100377.41
2018-12-10T11:33:24.906Z,100375.92
2018-12-10T11:35:53.121Z,100366.98
2018-12-10T11:38:21.557Z,100364.79
2018-12-10T11:40:49.700Z,100358.78
2018-12-10T11:43:17.936Z,100360.95
2018-12-10T11:45:46.242Z,100362.27
2018-12-10T11:48:15.562Z,100358.76
2018-12-10T11:50:43.802Z,100355.09
2018-12-10T11:53:12.041Z,100344.22
2018-12-10T11:55:40.280Z,100348.89
2018-12-10T11:58:08.565Z,100344.11
2018-12-10T12:00:37.008Z,100352.06
2018-12-10T12:03:05.352Z,100344.52
2018-12-10T12:05:33.615Z,100343.48
2018-12-10T12:08:02.055Z,100331.95
2018-12-10T12:10:30.504Z,100332.14
2018-12-10T12:12:59.401Z,100335.63
2018-12-10T12:15:28.756Z,100333.62
2018-12-10T12:17:57.173Z,100334.38
2018-12-10T12:20:25.561Z,100326.23
2018-12-10T12:22:53.776Z,100322.34
2018-12-10T12:25:22.276Z,100319.16
2018-12-10T12:27:50.878Z,100316.66
2018-12-10T12:30:19.952Z,100309.16
2018-12-10T12:32:48.314Z,100320.69
2018-12-10T12:35:19.198Z,100319.46
2018-12-10T12:37:47.451Z,100314.87
2018-12-10T12:40:18.319Z,100314.47
2018-12-10T12:42:48.085Z,100319.72
2018-12-10T12:45:16.604Z,100312.86
2018-12-10T12:47:44.945Z,100299.10
2018-12-10T12:50:13.234Z,100308.09
2018-12-10T12:52:41.539Z,100311.21
2018-12-10T12:55:09.739Z,100307.97
2018-12-10T12:57:38.026Z,100309.20
2018-12-10T13:00:06.677Z,100311.94
2018-12-10T13:02:34.946Z,100300.02
2018-12-10T13:05:03.450Z,100308.28
2018-12-10T13:07:32.999Z,100322.75
2018-12-10T13:10:02.615Z,100316.76
2018-12-10T13:12:30.800Z,100322.48
2018-12-10T13:14:58.931Z,100380.31
2018-12-10T13:17:27.695Z,100366.53
2018-12-10T13:22:58.238Z,100383.86
2018-12-10T13:25:26.548Z,100377.77
2018-12-10T13:27:54.958Z,100378.22
2018-12-10T13:30:23.103Z,100389.53
2018-12-10T13:32:51.377Z,100383.96
2018-12-10T13:35:20.533Z,100373.46
2018-12-10T13:37:49.804Z,100366.38
2018-12-10T13:40:19.646Z,100359.98
2018-12-10T13:42:48.472Z,100369.67
2018-12-10T13:45:17.182Z,100376.09
2018-12-10T13:47:45.255Z,100368.66
2018-12-10T13:50:14.244Z,100377.39
2018-12-10T13:52:42.420Z,100377.58
2018-12-10T13:55:10.921Z,100383.95
2018-12-10T13:57:39.076Z,100376.67
2018-12-10T14:00:10.467Z,100376.78
2018-12-10T14:02:38.649Z,100373.00
2018-12-10T14:05:09.743Z,100373.84
2018-12-10T14:07:39.047Z,100379.03
2018-12-10T14:10:07.705Z,100384.51
2018-12-10T14:12:36.033Z,100393.38
2018-12-10T14:15:05.587Z,100391.45
2018-12-10T14:17:34.276Z,100383.83
2018-12-10T14:20:02.657Z,100392.50
2018-12-10T14:22:30.952Z,100395.95
2018-12-10T14:24:59.925Z,100392.00
2018-12-10T14:27:29.203Z,100397.32
2018-12-10T14:29:57.474Z,100389.85
2018-12-10T14:32:26.165Z,100399.76
2018-12-10T14:34:54.439Z,100396.09
2018-12-10T14:37:23.751Z,100393.77
2018-12-10T14:39:52.979Z,100401.92
2018-12-10T14:42:21.789Z,100407.59
2018-12-10T14:44:51.039Z,100402.65
2018-12-10T14:47:19.326Z,100400.26
2018-12-10T14:49:47.493Z,100400.55
2018-12-10T14:52:15.662Z,100403.59
2018-12-10T14:54:43.861Z,100398.65
2018-12-10T14:57:12.076Z,100398.25
2018-12-10T14:59:40.315Z,100399.80
2018-12-10T15:02:08.441Z,100401.40
2018-12-10T15:04:37.754Z,100405.05
2018-12-10T15:07:06.063Z,100407.36
2018-12-10T15:09:34.260Z,100408.05
2018-12-10T15:12:02.489Z,100410.17
2018-12-10T15:14:30.665Z,100411.80
2018-12-10T15:16:58.964Z,100416.72
2018-12-10T15:19:27.139Z,100412.45
2018-12-10T15:21:55.335Z,100420.78
2018-12-10T15:24:23.593Z,100417.11
2018-12-10T15:26:51.864Z,100417.96
2018-12-10T15:29:23.905Z,100424.85
2018-12-10T15:31:52.127Z,100423.16
2018-12-10T15:34:20.258Z,100426.34
2018-12-10T15:36:50.164Z,100421.42
2018-12-10T15:39:18.739Z,100419.77
2018-12-10T15:41:47.664Z,100423.90
2018-12-10T15:44:15.732Z,100434.67
2018-12-10T15:46:43.903Z,100428.39
2018-12-10T15:49:12.007Z,100435.73
2018-12-10T15:51:40.399Z,100437.18
2018-12-10T15:54:08.513Z,100435.42
2018-12-10T15:56:36.723Z,100444.48
2018-12-10T15:59:04.888Z,100445.44
2018-12-10T16:01:33.047Z,100441.28
2018-12-10T16:04:01.203Z,100448.05
2018-12-10T16:06:29.344Z,100443.95
2018-12-10T16:08:57.528Z,100452.96
2018-12-10T16:11:27.908Z,100457.22
2018-12-10T16:13:56.026Z,100452.96
2018-12-10T16:16:25.156Z,100447.89
2018-12-10T16:18:53.524Z,100445.81
2018-12-10T16:21:22.591Z,100460.20
2018-12-10T16:23:50.691Z,100459.28
2018-12-10T16:26:18.820Z,100465.04
2018-12-10T16:28:47.076Z,100469.48
2018-12-10T16:31:15.183Z,100473.12
2018-12-10T16:33:43.252Z,100471.47
2018-12-10T16:36:12.596Z,100483.55
2018-12-10T16:38:41.393Z,100480.77
2018-12-10T16:41:09.512Z,100475.05
2018-12-10T16:43:37.600Z,100476.20
2018-12-10T16:46:05.886Z,100478.42
2018-12-10T16:48:34.846Z,100478.61
2018-12-10T16:51:03.839Z,100477.45
2018-12-10T16:53:33.376Z,100475.81
2018-12-10T16:56:02.016Z,100486.84
2018-12-10T16:58:30.084Z,100483.83
2018-12-10T17:00:58.296Z,100489.84
2018-12-10T17:03:26.358Z,100496.31
2018-12-10T17:05:54.499Z,100488.69
2018-12-10T17:08:22.628Z,100489.37
2018-12-10T17:10:50.704Z,100491.80
2018-12-10T17:13:18.897Z,100496.65
2018-12-10T17:15:47.052Z,100495.67
2018-12-10T17:18:15.171Z,100490.01
2018-12-10T17:20:43.292Z,100501.02
2018-12-10T17:23:11.367Z,100498.94
2018-12-10T17:25:39.584Z,100499.77
2018-12-10T17:28:07.851Z,100505.30
2018-12-10T17:30:35.912Z,100502.29
2018-12-10T17:33:04.135Z,100504.15
2018-12-10T17:35:32.683Z,100503.83
2018-12-10T17:38:10.739Z,100505.06
2018-12-10T17:40:38.817Z,100501.70
2018-12-10T17:43:06.931Z,100506.45
2018-12-10T17:45:35.795Z,100511.53
2018-12-10T17:48:04.004Z,100516.18
2018-12-10T17:50:32.209Z,100521.80
2018-12-10T17:53:00.287Z,100535.08
2018-12-10T17:55:29.411Z,100526.92
2018-12-10T17:57:57.524Z,100526.96
2018-12-10T18:00:26.303Z,100530.59
2018-12-10T18:02:55.259Z,100528.02
2018-12-10T18:05:23.425Z,100519.81
2018-12-10T18:07:51.554Z,100525.46
2018-12-10T18:10:20.455Z,100523.37
2018-12-10T18:12:51.065Z,100532.95
2018-12-10T18:15:19.210Z,100535.98
2018-12-10T18:18:01.047Z,100533.47
2018-12-10T18:20:29.153Z,100530.34
2018-12-10T18:23:01.521Z,100525.76
2018-12-10T18:25:29.832Z,100523.38
2018-12-10T18:27:57.941Z,100522.05
2018-12-10T18:30:26.147Z,100525.82
2018-12-10T18:32:54.401Z,100531.05
2018-12-10T18:35:24.043Z,100529.34
2018-12-10T18:37:52.107Z,100543.73
2018-12-10T18:40:20.178Z,100534.47
2018-12-10T18:42:48.331Z,100540.33
2018-12-10T18:45:16.547Z,100543.81
2018-12-10T18:47:44.675Z,100536.91
2018-12-10T18:50:12.787Z,100546.98
2018-12-10T18:52:40.942Z,100545.85
2018-12-10T18:55:09.151Z,100540.34
2018-12-10T18:57:37.212Z,100540.52
2018-12-10T19:00:10.072Z,100540.31
2018-12-10T19:02:38.601Z,100545.62
2018-12-10T19:05:07.308Z,100537.90
2018-12-10T19:07:35.424Z,100543.30
2018-12-10T19:10:04.240Z,100542.37
2018-12-10T19:12:32.695Z,100542.04
2018-12-10T19:15:01.127Z,100549.73
2018-12-10T19:17:29.227Z,100543.75
2018-12-10T19:19:57.336Z,100553.03
2018-12-10T19:22:27.165Z,100558.03
2018-12-10T19:24:59.849Z,100554.60
2018-12-10T19:27:29.854Z,100557.45
2018-12-10T19:29:57.950Z,100556.78
2018-12-10T19:32:26.094Z,100558.94
2018-12-10T19:34:55.906Z,100563.35
2018-12-10T19:37:24.094Z,100559.85
2018-12-10T19:39:52.341Z,100562.02
2018-12-10T19:42:20.490Z,100563.83
2018-12-10T19:44:48.950Z,100564.68
2018-12-10T19:47:17.232Z,100561.19
2018-12-10T19:49:46.627Z,100557.00
2018-12-10T19:52:14.874Z,100555.42
2018-12-10T19:54:44.590Z,100564.66
2018-12-10T19:57:12.826Z,100560.72
2018-12-10T19:59:42.246Z,100557.28
2018-12-10T20:02:13.826Z,100563.69
2018-12-10T20:07:22.110Z,100569.92
2018-12-10T20:09:50.224Z,100568.66
2018-12-10T20:12:18.319Z,100563.41
2018-12-10T20:14:46.380Z,100573.77
2018-12-10T20:17:14.531Z,100577.72
2018-12-10T20:19:42.587Z,100580.26
2018-12-10T20:22:10.788Z,100578.48
2018-12-10T20:24:38.884Z,100589.45
2018-12-10T20:27:07.041Z,100585.01
2018-12-10T20:29:35.196Z,100588.99
2018-12-10T20:32:03.429Z,100592.55
2018-12-10T20:34:31.614Z,100597.13
2018-12-10T20:36:59.728Z,100589.53
2018-12-10T20:39:27.854Z,100584.48
2018-12-10T20:44:33.254Z,100580.49
2018-12-10T20:47:01.318Z,100573.27
2018-12-10T20:49:29.389Z,100582.83
2018-12-10T20:51:57.639Z,100581.69
2018-12-10T20:54:25.704Z,100578.63
2018-12-10T20:56:53.898Z,100574.68
2018-12-10T20:59:21.985Z,100586.31
2018-12-10T21:01:50.102Z,100582.83
2018-12-10T21:04:18.168Z,100585.30
2018-12-10T21:06:46.211Z,100579.02
2018-12-10T21:09:14.281Z,100578.28
2018-12-10T21:11:42.330Z,100587.86
2018-12-10T21:14:10.392Z,100585.95
2018-12-10T21:16:38.480Z,100581.39
2018-12-10T21:19:06.592Z,100580.34
2018-12-10T21:21:34.636Z,100577.61
2018-12-10T21:24:02.786Z,100578.17
2018-12-10T21:26:30.871Z,100574.60
2018-12-10T21:28:58.934Z,100573.93
2018-12-10T21:31:27.069Z,100570.89
2018-12-10T21:33:55.127Z,100570.52
2018-12-10T21:36:23.179Z,100572.34
2018-12-10T21:38:51.254Z,100563.53
2018-12-10T21:41:19.388Z,100565.59
2018-12-10T21:43:47.494Z,100570.42
2018-12-10T21:46:15.893Z,100576.21
2018-12-10T21:48:43.984Z,100576.69
2018-12-10T21:51:12.074Z,100580.70
2018-12-10T21:53:40.177Z,100575.91
2018-12-10T21:56:08.262Z,100576.57
2018-12-10T21:58:36.435Z,100576.77
2018-12-10T22:01:04.604Z,100574.41
2018-12-10T22:03:32.695Z,100570.84
2018-12-10T22:06:00.821Z,100564.58
2018-12-10T22:08:28.891Z,100558.38
2018-12-10T22:10:57.042Z,100560.23
2018-12-10T22:13:25.099Z,100554.33
2018-12-10T22:15:53.238Z,100557.77
2018-12-10T22:18:21.344Z,100564.75
2018-12-10T22:20:49.460Z,100568.83
2018-12-10T22:23:17.526Z,100563.27
2018-12-10T22:25:45.584Z,100563.45
2018-12-10T22:28:13.655Z,100567.36
2018-12-10T22:30:41.789Z,100565.81
2018-12-10T22:35:47.150Z,100565.13
2018-12-10T22:38:15.225Z,100573.52
2018-12-10T22:40:43.314Z,100564.95
2018-12-10T22:43:11.553Z,100562.47
2018-12-10T22:45:43.779Z,100565.20
2018-12-10T22:48:11.851Z,100564.25
2018-12-10T22:50:39.915Z,100568.67
2018-12-10T22:53:08.006Z,100571.80
2018-12-10T22:55:36.092Z,100570.14
2018-12-10T22:58:04.232Z,100565.42
2018-12-10T23:00:48.090Z,100570.05
2018-12-10T23:03:16.162Z,100575.15
2018-12-10T23:05:44.210Z,100573.81
2018-12-10T23:08:12.306Z,100573.50
2018-12-10T23:10:40.367Z,100577.24
2018-12-10T23:13:08.422Z,100569.59
2018-12-10T23:15:36.618Z,100580.78
2018-12-10T23:18:04.884Z,100572.09
2018-12-10T23:20:32.979Z,100573.19
2018-12-10T23:23:01.033Z,100569.84
2018-12-10T23:25:29.180Z,100565.59
2018-12-10T23:27:57.234Z,100568.58
2018-12-10T23:30:25.334Z,100568.95
2018-12-10T23:32:53.385Z,100575.61
2018-12-10T23:35:21.442Z,100581.31
2018-12-10T23:37:49.523Z,100586.64
2018-12-10T23:40:17.586Z,100584.66
2018-12-10T23:42:51.234Z,100579.28
2018-12-10T23:45:19.344Z,100576.06
2018-12-10T23:47:47.430Z,100587.31
2018-12-10T23:50:15.530Z,100583.42
2018-12-10T23:52:43.584Z,100585.74
2018-12-10T23:55:11.639Z,100584.87
2018-12-10T23:57:39.694Z,100586.41
